sensor_id;sensor_type;location;lat;lon;timestamp;P1;durP1;ratioP1;P2;durP2;ratioP2
17812;SDS011;9030;50.792;8.320;2023-12-28T00:00:05;9.33;;;4.57;;
17812;SDS011;9030;50.792;8.320;2023-12-28T00:02:33;8.73;;;3.63;;
17812;SDS011;9030;50.792;8.320;2023-12-28T00:04:59;9.10;;;3.43;;
17812;SDS011;9030;50.792;8.320;2023-12-28T00:07:26;12.87;;;4.77;;
17812;SDS011;9030;50.792;8.320;2023-12-28T00:09:53;10.80;;;4.73;;
17812;SDS011;9030;50.792;8.320;2023-12-28T00:12:20;16.73;;;8.83;;
17812;SDS011;9030;50.792;8.320;2023-12-28T00:14:47;12.30;;;4.80;;
17812;SDS011;9030;50.792;8.320;2023-12-28T00:17:15;14.40;;;4.30;;
17812;SDS011;9030;50.792;8.320;2023-12-28T00:19:42;11.83;;;4.90;;
17812;SDS011;9030;50.792;8.320;2023-12-28T00:22:08;9.30;;;3.23;;
17812;SDS011;9030;50.792;8.320;2023-12-28T00:24:35;10.90;;;3.73;;
17812;SDS011;9030;50.792;8.320;2023-12-28T00:27:02;6.67;;;2.90;;
17812;SDS011;9030;50.792;8.320;2023-12-28T00:29:29;7.43;;;3.00;;
17812;SDS011;9030;50.792;8.320;2023-12-28T00:31:55;7.47;;;3.27;;
17812;SDS011;9030;50.792;8.320;2023-12-28T00:34:23;8.33;;;2.63;;
17812;SDS011;9030;50.792;8.320;2023-12-28T00:36:50;6.53;;;2.67;;
17812;SDS011;9030;50.792;8.320;2023-12-28T00:39:16;11.57;;;3.70;;
17812;SDS011;9030;50.792;8.320;2023-12-28T00:41:43;6.40;;;2.93;;
17812;SDS011;9030;50.792;8.320;2023-12-28T00:44:10;7.33;;;2.80;;
17812;SDS011;9030;50.792;8.320;2023-12-28T00:46:36;7.33;;;3.00;;
17812;SDS011;9030;50.792;8.320;2023-12-28T00:49:03;8.23;;;2.47;;
17812;SDS011;9030;50.792;8.320;2023-12-28T00:51:31;5.60;;;2.40;;
17812;SDS011;9030;50.792;8.320;2023-12-28T00:53:59;11.00;;;3.67;;
17812;SDS011;9030;50.792;8.320;2023-12-28T00:56:28;9.37;;;4.43;;
17812;SDS011;9030;50.792;8.320;2023-12-28T00:58:58;8.67;;;3.63;;
17812;SDS011;9030;50.792;8.320;2023-12-28T01:01:29;11.13;;;4.10;;
17812;SDS011;9030;50.792;8.320;2023-12-28T01:03:57;10.90;;;4.03;;
17812;SDS011;9030;50.792;8.320;2023-12-28T01:06:36;8.93;;;4.27;;
17812;SDS011;9030;50.792;8.320;2023-12-28T01:09:11;8.07;;;4.00;;
17812;SDS011;9030;50.792;8.320;2023-12-28T01:11:40;10.33;;;4.07;;
17812;SDS011;9030;50.792;8.320;2023-12-28T01:14:13;9.20;;;3.53;;
17812;SDS011;9030;50.792;8.320;2023-12-28T01:16:58;8.60;;;2.93;;
17812;SDS011;9030;50.792;8.320;2023-12-28T01:19:27;7.10;;;3.17;;
17812;SDS011;9030;50.792;8.320;2023-12-28T01:22:01;11.73;;;3.67;;
17812;SDS011;9030;50.792;8.320;2023-12-28T01:24:33;7.43;;;3.50;;
17812;SDS011;9030;50.792;8.320;2023-12-28T01:27:16;6.57;;;3.30;;
17812;SDS011;9030;50.792;8.320;2023-12-28T01:29:47;11.70;;;3.80;;
17812;SDS011;9030;50.792;8.320;2023-12-28T01:32:32;8.13;;;2.47;;
17812;SDS011;9030;50.792;8.320;2023-12-28T01:35:25;6.70;;;2.90;;
17812;SDS011;9030;50.792;8.320;2023-12-28T01:38:00;5.33;;;2.53;;
17812;SDS011;9030;50.792;8.320;2023-12-28T01:40:35;10.27;;;3.33;;
17812;SDS011;9030;50.792;8.320;2023-12-28T01:43:05;4.97;;;2.20;;
17812;SDS011;9030;50.792;8.320;2023-12-28T01:45:33;4.53;;;2.30;;
17812;SDS011;9030;50.792;8.320;2023-12-28T01:48:01;8.13;;;3.47;;
17812;SDS011;9030;50.792;8.320;2023-12-28T01:50:44;8.27;;;3.53;;
17812;SDS011;9030;50.792;8.320;2023-12-28T01:53:14;6.90;;;2.93;;
17812;SDS011;9030;50.792;8.320;2023-12-28T01:59:12;8.50;;;2.70;;
17812;SDS011;9030;50.792;8.320;2023-12-28T02:05:42;6.30;;;2.63;;
17812;SDS011;9030;50.792;8.320;2023-12-28T02:28:38;8.67;;;4.10;;
17812;SDS011;9030;50.792;8.320;2023-12-28T02:31:08;6.90;;;3.50;;
17812;SDS011;9030;50.792;8.320;2023-12-28T02:33:50;7.77;;;3.40;;
17812;SDS011;9030;50.792;8.320;2023-12-28T02:36:34;6.77;;;2.90;;
17812;SDS011;9030;50.792;8.320;2023-12-28T02:39:05;9.67;;;3.90;;
17812;SDS011;9030;50.792;8.320;2023-12-28T02:41:37;8.03;;;3.43;;
17812;SDS011;9030;50.792;8.320;2023-12-28T02:47:02;9.63;;;4.03;;
17812;SDS011;9030;50.792;8.320;2023-12-28T02:49:32;8.30;;;3.67;;
17812;SDS011;9030;50.792;8.320;2023-12-28T02:52:06;8.07;;;3.57;;
17812;SDS011;9030;50.792;8.320;2023-12-28T02:54:39;8.93;;;3.90;;
17812;SDS011;9030;50.792;8.320;2023-12-28T03:40:25;7.53;;;2.60;;
17812;SDS011;9030;50.792;8.320;2023-12-28T03:42:54;8.17;;;2.90;;
17812;SDS011;9030;50.792;8.320;2023-12-28T03:45:24;7.67;;;3.20;;
17812;SDS011;9030;50.792;8.320;2023-12-28T03:47:53;10.07;;;3.60;;
17812;SDS011;9030;50.792;8.320;2023-12-28T03:50:28;10.53;;;4.00;;
17812;SDS011;9030;50.792;8.320;2023-12-28T03:53:02;6.17;;;3.03;;
17812;SDS011;9030;50.792;8.320;2023-12-28T03:55:31;8.90;;;3.87;;
17812;SDS011;9030;50.792;8.320;2023-12-28T03:58:05;5.83;;;2.70;;
17812;SDS011;9030;50.792;8.320;2023-12-28T04:00:36;6.20;;;2.80;;
17812;SDS011;9030;50.792;8.320;2023-12-28T04:03:07;6.20;;;2.70;;
17812;SDS011;9030;50.792;8.320;2023-12-28T04:05:39;6.60;;;2.80;;
17812;SDS011;9030;50.792;8.320;2023-12-28T04:08:31;8.83;;;3.50;;
17812;SDS011;9030;50.792;8.320;2023-12-28T04:10:58;8.20;;;4.23;;
17812;SDS011;9030;50.792;8.320;2023-12-28T04:13:25;13.90;;;5.53;;
17812;SDS011;9030;50.792;8.320;2023-12-28T04:15:51;12.93;;;6.80;;
17812;SDS011;9030;50.792;8.320;2023-12-28T04:18:18;10.17;;;5.80;;
17812;SDS011;9030;50.792;8.320;2023-12-28T04:20:44;10.17;;;4.77;;
17812;SDS011;9030;50.792;8.320;2023-12-28T04:23:11;15.03;;;10.33;;
17812;SDS011;9030;50.792;8.320;2023-12-28T04:25:39;7.30;;;3.77;;
17812;SDS011;9030;50.792;8.320;2023-12-28T04:28:06;8.47;;;3.77;;
17812;SDS011;9030;50.792;8.320;2023-12-28T04:30:33;6.83;;;2.40;;
17812;SDS011;9030;50.792;8.320;2023-12-28T04:32:59;8.67;;;3.70;;
17812;SDS011;9030;50.792;8.320;2023-12-28T04:35:26;11.30;;;3.70;;
17812;SDS011;9030;50.792;8.320;2023-12-28T04:37:53;6.00;;;3.53;;
17812;SDS011;9030;50.792;8.320;2023-12-28T04:40:20;9.83;;;4.33;;
17812;SDS011;9030;50.792;8.320;2023-12-28T04:42:48;7.33;;;3.73;;
17812;SDS011;9030;50.792;8.320;2023-12-28T04:45:15;7.73;;;2.97;;
17812;SDS011;9030;50.792;8.320;2023-12-28T04:47:41;7.60;;;3.60;;
17812;SDS011;9030;50.792;8.320;2023-12-28T04:50:08;8.50;;;3.73;;
17812;SDS011;9030;50.792;8.320;2023-12-28T04:52:34;6.73;;;3.00;;
17812;SDS011;9030;50.792;8.320;2023-12-28T04:55:01;6.03;;;2.90;;
17812;SDS011;9030;50.792;8.320;2023-12-28T04:57:28;7.60;;;3.53;;
17812;SDS011;9030;50.792;8.320;2023-12-28T04:59:56;5.90;;;3.40;;
17812;SDS011;9030;50.792;8.320;2023-12-28T05:02:22;9.07;;;3.63;;
17812;SDS011;9030;50.792;8.320;2023-12-28T05:04:49;7.40;;;3.80;;
17812;SDS011;9030;50.792;8.320;2023-12-28T05:07:15;9.67;;;4.10;;
17812;SDS011;9030;50.792;8.320;2023-12-28T05:09:42;9.80;;;3.90;;
17812;SDS011;9030;50.792;8.320;2023-12-28T05:12:09;6.80;;;3.43;;
17812;SDS011;9030;50.792;8.320;2023-12-28T05:14:35;8.17;;;3.43;;
17812;SDS011;9030;50.792;8.320;2023-12-28T05:17:04;7.77;;;3.20;;
17812;SDS011;9030;50.792;8.320;2023-12-28T05:19:30;8.93;;;4.20;;
17812;SDS011;9030;50.792;8.320;2023-12-28T05:21:57;7.03;;;4.00;;
17812;SDS011;9030;50.792;8.320;2023-12-28T05:24:28;6.53;;;3.07;;
17812;SDS011;9030;50.792;8.320;2023-12-28T05:26:54;8.53;;;2.93;;
17812;SDS011;9030;50.792;8.320;2023-12-28T05:29:21;8.43;;;3.73;;
17812;SDS011;9030;50.792;8.320;2023-12-28T05:31:48;7.73;;;3.60;;
17812;SDS011;9030;50.792;8.320;2023-12-28T05:34:15;7.83;;;4.00;;
17812;SDS011;9030;50.792;8.320;2023-12-28T05:36:42;6.23;;;3.60;;
17812;SDS011;9030;50.792;8.320;2023-12-28T05:39:10;10.50;;;4.13;;
17812;SDS011;9030;50.792;8.320;2023-12-28T05:41:38;9.77;;;4.13;;
17812;SDS011;9030;50.792;8.320;2023-12-28T05:44:05;7.10;;;3.40;;
17812;SDS011;9030;50.792;8.320;2023-12-28T05:46:32;6.67;;;3.20;;
17812;SDS011;9030;50.792;8.320;2023-12-28T05:48:58;7.97;;;3.40;;
17812;SDS011;9030;50.792;8.320;2023-12-28T05:51:26;7.67;;;2.63;;
17812;SDS011;9030;50.792;8.320;2023-12-28T05:53:53;8.73;;;3.80;;
17812;SDS011;9030;50.792;8.320;2023-12-28T05:56:19;9.33;;;3.87;;
17812;SDS011;9030;50.792;8.320;2023-12-28T05:58:46;8.40;;;3.50;;
17812;SDS011;9030;50.792;8.320;2023-12-28T06:01:13;7.30;;;3.13;;
17812;SDS011;9030;50.792;8.320;2023-12-28T06:03:39;8.97;;;3.33;;
17812;SDS011;9030;50.792;8.320;2023-12-28T06:06:06;6.27;;;3.00;;
17812;SDS011;9030;50.792;8.320;2023-12-28T06:08:34;8.13;;;3.30;;
17812;SDS011;9030;50.792;8.320;2023-12-28T06:11:00;5.10;;;2.43;;
17812;SDS011;9030;50.792;8.320;2023-12-28T06:13:27;9.27;;;3.33;;
17812;SDS011;9030;50.792;8.320;2023-12-28T06:15:54;8.57;;;2.83;;
17812;SDS011;9030;50.792;8.320;2023-12-28T06:18:20;6.70;;;3.17;;
17812;SDS011;9030;50.792;8.320;2023-12-28T06:20:47;7.83;;;3.03;;
17812;SDS011;9030;50.792;8.320;2023-12-28T06:23:14;7.17;;;2.80;;
17812;SDS011;9030;50.792;8.320;2023-12-28T06:25:42;6.47;;;2.87;;
17812;SDS011;9030;50.792;8.320;2023-12-28T06:28:08;11.27;;;4.10;;
17812;SDS011;9030;50.792;8.320;2023-12-28T06:30:35;7.80;;;3.47;;
17812;SDS011;9030;50.792;8.320;2023-12-28T06:33:02;9.27;;;4.03;;
17812;SDS011;9030;50.792;8.320;2023-12-28T06:35:28;6.67;;;3.63;;
17812;SDS011;9030;50.792;8.320;2023-12-28T06:37:56;8.67;;;2.97;;
17812;SDS011;9030;50.792;8.320;2023-12-28T06:40:22;8.30;;;2.90;;
17812;SDS011;9030;50.792;8.320;2023-12-28T06:42:50;10.07;;;3.47;;
17812;SDS011;9030;50.792;8.320;2023-12-28T06:45:17;6.47;;;3.00;;
17812;SDS011;9030;50.792;8.320;2023-12-28T06:47:43;6.67;;;2.80;;
17812;SDS011;9030;50.792;8.320;2023-12-28T06:50:10;8.93;;;3.90;;
17812;SDS011;9030;50.792;8.320;2023-12-28T06:52:38;6.47;;;3.13;;
17812;SDS011;9030;50.792;8.320;2023-12-28T06:55:09;9.27;;;3.30;;
17812;SDS011;9030;50.792;8.320;2023-12-28T06:57:48;7.43;;;3.33;;
17812;SDS011;9030;50.792;8.320;2023-12-28T07:00:20;7.27;;;3.47;;
17812;SDS011;9030;50.792;8.320;2023-12-28T07:02:54;6.17;;;2.67;;
17812;SDS011;9030;50.792;8.320;2023-12-28T07:05:23;6.10;;;3.13;;
17812;SDS011;9030;50.792;8.320;2023-12-28T07:07:58;11.60;;;5.00;;
17812;SDS011;9030;50.792;8.320;2023-12-28T08:25:07;12.80;;;6.37;;
17812;SDS011;9030;50.792;8.320;2023-12-28T08:27:34;15.73;;;6.10;;
17812;SDS011;9030;50.792;8.320;2023-12-28T08:30:01;20.80;;;9.73;;
17812;SDS011;9030;50.792;8.320;2023-12-28T08:32:28;19.97;;;10.97;;
17812;SDS011;9030;50.792;8.320;2023-12-28T08:34:54;11.63;;;4.07;;
17812;SDS011;9030;50.792;8.320;2023-12-28T08:37:21;12.10;;;4.63;;
17812;SDS011;9030;50.792;8.320;2023-12-28T08:39:49;17.13;;;3.83;;
17812;SDS011;9030;50.792;8.320;2023-12-28T08:42:16;12.20;;;4.50;;
17812;SDS011;9030;50.792;8.320;2023-12-28T08:44:42;9.20;;;2.80;;
17812;SDS011;9030;50.792;8.320;2023-12-28T08:47:09;8.27;;;3.43;;
17812;SDS011;9030;50.792;8.320;2023-12-28T08:49:35;12.87;;;4.47;;
17812;SDS011;9030;50.792;8.320;2023-12-28T08:52:02;7.37;;;3.57;;
17812;SDS011;9030;50.792;8.320;2023-12-28T08:54:29;10.37;;;3.20;;
17812;SDS011;9030;50.792;8.320;2023-12-28T08:56:57;6.60;;;2.83;;
17812;SDS011;9030;50.792;8.320;2023-12-28T08:59:23;9.83;;;3.10;;
17812;SDS011;9030;50.792;8.320;2023-12-28T09:01:52;11.20;;;3.33;;
17812;SDS011;9030;50.792;8.320;2023-12-28T09:04:19;11.80;;;4.10;;
17812;SDS011;9030;50.792;8.320;2023-12-28T09:06:46;10.20;;;2.87;;
17812;SDS011;9030;50.792;8.320;2023-12-28T09:09:12;7.30;;;2.80;;
17812;SDS011;9030;50.792;8.320;2023-12-28T09:11:39;11.43;;;2.67;;
17812;SDS011;9030;50.792;8.320;2023-12-28T09:14:07;7.20;;;2.67;;
17812;SDS011;9030;50.792;8.320;2023-12-28T09:16:33;9.70;;;2.60;;
17812;SDS011;9030;50.792;8.320;2023-12-28T09:19:00;7.90;;;2.17;;
17812;SDS011;9030;50.792;8.320;2023-12-28T09:21:27;10.53;;;4.00;;
17812;SDS011;9030;50.792;8.320;2023-12-28T09:23:53;8.10;;;2.97;;
17812;SDS011;9030;50.792;8.320;2023-12-28T09:26:20;10.63;;;3.73;;
17812;SDS011;9030;50.792;8.320;2023-12-28T09:28:46;4.73;;;2.63;;
17812;SDS011;9030;50.792;8.320;2023-12-28T09:31:14;10.47;;;3.17;;
17812;SDS011;9030;50.792;8.320;2023-12-28T09:33:41;8.93;;;2.50;;
17812;SDS011;9030;50.792;8.320;2023-12-28T09:36:09;10.33;;;3.30;;
17812;SDS011;9030;50.792;8.320;2023-12-28T09:38:37;6.37;;;2.70;;
17812;SDS011;9030;50.792;8.320;2023-12-28T09:41:05;8.93;;;3.20;;
17812;SDS011;9030;50.792;8.320;2023-12-28T09:43:41;9.23;;;3.27;;
17812;SDS011;9030;50.792;8.320;2023-12-28T09:46:16;8.03;;;2.70;;
17812;SDS011;9030;50.792;8.320;2023-12-28T09:48:43;10.30;;;2.67;;
17812;SDS011;9030;50.792;8.320;2023-12-28T09:51:10;8.70;;;2.80;;
17812;SDS011;9030;50.792;8.320;2023-12-28T09:53:37;7.93;;;2.63;;
17812;SDS011;9030;50.792;8.320;2023-12-28T09:56:04;9.60;;;3.37;;
17812;SDS011;9030;50.792;8.320;2023-12-28T09:58:32;10.23;;;3.03;;
17812;SDS011;9030;50.792;8.320;2023-12-28T10:01:01;6.93;;;2.43;;
17812;SDS011;9030;50.792;8.320;2023-12-28T10:03:30;10.50;;;3.13;;
17812;SDS011;9030;50.792;8.320;2023-12-28T10:05:57;12.03;;;3.00;;
17812;SDS011;9030;50.792;8.320;2023-12-28T10:08:24;8.53;;;2.30;;
17812;SDS011;9030;50.792;8.320;2023-12-28T10:10:51;8.17;;;2.70;;
17812;SDS011;9030;50.792;8.320;2023-12-28T10:13:19;6.83;;;2.13;;
17812;SDS011;9030;50.792;8.320;2023-12-28T10:15:46;10.77;;;3.53;;
17812;SDS011;9030;50.792;8.320;2023-12-28T10:18:14;5.90;;;2.13;;
17812;SDS011;9030;50.792;8.320;2023-12-28T10:20:47;7.60;;;2.67;;
17812;SDS011;9030;50.792;8.320;2023-12-28T10:23:15;7.03;;;2.37;;
17812;SDS011;9030;50.792;8.320;2023-12-28T10:25:42;7.67;;;2.23;;
17812;SDS011;9030;50.792;8.320;2023-12-28T10:28:09;7.43;;;2.87;;
17812;SDS011;9030;50.792;8.320;2023-12-28T10:30:37;11.07;;;2.00;;
17812;SDS011;9030;50.792;8.320;2023-12-28T10:33:05;5.43;;;2.53;;
17812;SDS011;9030;50.792;8.320;2023-12-28T10:35:31;9.87;;;2.40;;
17812;SDS011;9030;50.792;8.320;2023-12-28T10:38:00;8.07;;;2.53;;
17812;SDS011;9030;50.792;8.320;2023-12-28T10:40:28;6.40;;;1.93;;
17812;SDS011;9030;50.792;8.320;2023-12-28T10:42:57;9.13;;;2.30;;
17812;SDS011;9030;50.792;8.320;2023-12-28T10:45:26;5.77;;;2.13;;
17812;SDS011;9030;50.792;8.320;2023-12-28T10:47:58;6.00;;;2.60;;
17812;SDS011;9030;50.792;8.320;2023-12-28T10:50:31;6.10;;;1.57;;
17812;SDS011;9030;50.792;8.320;2023-12-28T10:53:09;7.87;;;2.67;;
17812;SDS011;9030;50.792;8.320;2023-12-28T10:55:48;11.27;;;2.70;;
17812;SDS011;9030;50.792;8.320;2023-12-28T10:58:24;8.97;;;2.80;;
17812;SDS011;9030;50.792;8.320;2023-12-28T11:01:01;8.70;;;2.47;;
17812;SDS011;9030;50.792;8.320;2023-12-28T11:03:30;10.00;;;2.80;;
17812;SDS011;9030;50.792;8.320;2023-12-28T11:06:00;9.37;;;2.70;;
17812;SDS011;9030;50.792;8.320;2023-12-28T11:08:29;8.80;;;1.70;;
17812;SDS011;9030;50.792;8.320;2023-12-28T11:10:58;7.27;;;2.10;;
17812;SDS011;9030;50.792;8.320;2023-12-28T11:13:26;6.30;;;2.53;;
17812;SDS011;9030;50.792;8.320;2023-12-28T11:15:55;8.13;;;2.20;;
17812;SDS011;9030;50.792;8.320;2023-12-28T11:18:22;8.60;;;1.97;;
17812;SDS011;9030;50.792;8.320;2023-12-28T11:20:50;6.40;;;1.77;;
17812;SDS011;9030;50.792;8.320;2023-12-28T11:23:18;10.37;;;3.07;;
17812;SDS011;9030;50.792;8.320;2023-12-28T11:25:46;12.00;;;3.50;;
17812;SDS011;9030;50.792;8.320;2023-12-28T11:28:12;9.23;;;2.70;;
17812;SDS011;9030;50.792;8.320;2023-12-28T11:30:41;5.03;;;1.70;;
17812;SDS011;9030;50.792;8.320;2023-12-28T11:33:08;7.43;;;2.20;;
17812;SDS011;9030;50.792;8.320;2023-12-28T11:35:36;7.57;;;2.63;;
17812;SDS011;9030;50.792;8.320;2023-12-28T11:38:04;9.30;;;2.93;;
17812;SDS011;9030;50.792;8.320;2023-12-28T11:40:39;10.67;;;3.23;;
17812;SDS011;9030;50.792;8.320;2023-12-28T11:43:15;7.43;;;2.63;;
17812;SDS011;9030;50.792;8.320;2023-12-28T11:45:47;12.10;;;3.87;;
17812;SDS011;9030;50.792;8.320;2023-12-28T11:48:23;9.13;;;2.30;;
17812;SDS011;9030;50.792;8.320;2023-12-28T11:50:52;12.37;;;2.77;;
17812;SDS011;9030;50.792;8.320;2023-12-28T11:53:21;8.10;;;1.90;;
17812;SDS011;9030;50.792;8.320;2023-12-28T11:55:48;5.27;;;1.87;;
17812;SDS011;9030;50.792;8.320;2023-12-28T11:58:16;7.13;;;2.03;;
17812;SDS011;9030;50.792;8.320;2023-12-28T12:00:43;6.90;;;3.00;;
17812;SDS011;9030;50.792;8.320;2023-12-28T12:03:10;9.20;;;2.33;;
17812;SDS011;9030;50.792;8.320;2023-12-28T12:05:38;4.73;;;1.83;;
17812;SDS011;9030;50.792;8.320;2023-12-28T12:08:05;8.83;;;2.33;;
17812;SDS011;9030;50.792;8.320;2023-12-28T12:10:33;9.07;;;2.30;;
17812;SDS011;9030;50.792;8.320;2023-12-28T12:13:00;9.57;;;3.53;;
17812;SDS011;9030;50.792;8.320;2023-12-28T12:15:29;10.43;;;2.10;;
17812;SDS011;9030;50.792;8.320;2023-12-28T12:17:56;11.80;;;2.33;;
17812;SDS011;9030;50.792;8.320;2023-12-28T12:20:23;7.17;;;2.20;;
17812;SDS011;9030;50.792;8.320;2023-12-28T12:22:49;14.73;;;4.40;;
17812;SDS011;9030;50.792;8.320;2023-12-28T12:25:17;14.43;;;5.20;;
17812;SDS011;9030;50.792;8.320;2023-12-28T12:27:44;19.03;;;6.63;;
17812;SDS011;9030;50.792;8.320;2023-12-28T12:30:11;17.83;;;6.03;;
17812;SDS011;9030;50.792;8.320;2023-12-28T12:32:40;15.47;;;6.23;;
17812;SDS011;9030;50.792;8.320;2023-12-28T12:35:07;15.23;;;7.00;;
17812;SDS011;9030;50.792;8.320;2023-12-28T12:37:35;12.50;;;4.93;;
17812;SDS011;9030;50.792;8.320;2023-12-28T12:40:03;14.93;;;3.77;;
17812;SDS011;9030;50.792;8.320;2023-12-28T12:42:32;8.97;;;2.73;;
17812;SDS011;9030;50.792;8.320;2023-12-28T12:44:59;10.60;;;2.63;;
17812;SDS011;9030;50.792;8.320;2023-12-28T12:47:25;10.30;;;2.37;;
17812;SDS011;9030;50.792;8.320;2023-12-28T12:49:59;8.43;;;2.17;;
17812;SDS011;9030;50.792;8.320;2023-12-28T12:52:26;12.33;;;2.57;;
17812;SDS011;9030;50.792;8.320;2023-12-28T12:55:10;11.97;;;2.37;;
17812;SDS011;9030;50.792;8.320;2023-12-28T12:57:44;8.33;;;2.23;;
17812;SDS011;9030;50.792;8.320;2023-12-28T13:00:14;13.27;;;2.70;;
17812;SDS011;9030;50.792;8.320;2023-12-28T13:02:50;7.80;;;2.00;;
17812;SDS011;9030;50.792;8.320;2023-12-28T13:08:53;11.97;;;1.60;;
17812;SDS011;9030;50.792;8.320;2023-12-28T13:11:53;12.33;;;3.37;;
17812;SDS011;9030;50.792;8.320;2023-12-28T13:14:28;6.23;;;1.90;;
17812;SDS011;9030;50.792;8.320;2023-12-28T13:17:02;8.03;;;1.90;;
17812;SDS011;9030;50.792;8.320;2023-12-28T13:19:31;7.50;;;1.80;;
17812;SDS011;9030;50.792;8.320;2023-12-28T13:25:14;10.23;;;2.33;;
17812;SDS011;9030;50.792;8.320;2023-12-28T13:27:44;11.00;;;2.77;;
17812;SDS011;9030;50.792;8.320;2023-12-28T13:30:25;9.30;;;2.37;;
17812;SDS011;9030;50.792;8.320;2023-12-28T13:33:03;11.43;;;2.47;;
17812;SDS011;9030;50.792;8.320;2023-12-28T13:38:37;9.47;;;3.47;;
17812;SDS011;9030;50.792;8.320;2023-12-28T13:44:31;10.00;;;1.80;;
17812;SDS011;9030;50.792;8.320;2023-12-28T13:47:07;17.77;;;2.67;;
17812;SDS011;9030;50.792;8.320;2023-12-28T13:49:38;11.67;;;3.00;;
17812;SDS011;9030;50.792;8.320;2023-12-28T13:52:22;10.23;;;2.17;;
17812;SDS011;9030;50.792;8.320;2023-12-28T13:58:15;7.77;;;1.70;;
17812;SDS011;9030;50.792;8.320;2023-12-28T14:00:59;8.33;;;2.80;;
17812;SDS011;9030;50.792;8.320;2023-12-28T14:03:44;11.17;;;2.70;;
17812;SDS011;9030;50.792;8.320;2023-12-28T14:06:14;8.93;;;2.77;;
17812;SDS011;9030;50.792;8.320;2023-12-28T14:08:44;8.77;;;2.97;;
17812;SDS011;9030;50.792;8.320;2023-12-28T14:11:13;7.83;;;3.07;;
17812;SDS011;9030;50.792;8.320;2023-12-28T14:13:46;6.43;;;2.50;;
17812;SDS011;9030;50.792;8.320;2023-12-28T14:16:18;11.40;;;3.07;;
17812;SDS011;9030;50.792;8.320;2023-12-28T14:18:49;6.30;;;2.30;;
17812;SDS011;9030;50.792;8.320;2023-12-28T14:21:22;13.27;;;2.60;;
17812;SDS011;9030;50.792;8.320;2023-12-28T14:24:09;8.87;;;2.00;;
17812;SDS011;9030;50.792;8.320;2023-12-28T14:26:45;10.97;;;2.93;;
17812;SDS011;9030;50.792;8.320;2023-12-28T14:29:32;9.43;;;2.10;;
17812;SDS011;9030;50.792;8.320;2023-12-28T14:32:15;9.27;;;2.30;;
17812;SDS011;9030;50.792;8.320;2023-12-28T14:34:59;9.57;;;2.30;;
17812;SDS011;9030;50.792;8.320;2023-12-28T14:37:59;8.57;;;2.07;;
17812;SDS011;9030;50.792;8.320;2023-12-28T14:40:28;14.30;;;2.50;;
17812;SDS011;9030;50.792;8.320;2023-12-28T14:46:16;12.97;;;2.87;;
17812;SDS011;9030;50.792;8.320;2023-12-28T14:55:32;13.40;;;3.43;;
17812;SDS011;9030;50.792;8.320;2023-12-28T14:59:01;10.37;;;2.70;;
17812;SDS011;9030;50.792;8.320;2023-12-28T15:02:05;12.80;;;2.67;;
17812;SDS011;9030;50.792;8.320;2023-12-28T15:04:32;17.43;;;3.57;;
17812;SDS011;9030;50.792;8.320;2023-12-28T15:06:59;8.67;;;2.27;;
17812;SDS011;9030;50.792;8.320;2023-12-28T15:09:27;11.53;;;3.40;;
17812;SDS011;9030;50.792;8.320;2023-12-28T15:11:55;12.73;;;3.27;;
17812;SDS011;9030;50.792;8.320;2023-12-28T15:14:22;9.63;;;2.90;;
17812;SDS011;9030;50.792;8.320;2023-12-28T15:16:49;9.20;;;2.40;;
17812;SDS011;9030;50.792;8.320;2023-12-28T15:19:16;11.17;;;2.63;;
17812;SDS011;9030;50.792;8.320;2023-12-28T15:21:43;13.67;;;3.20;;
17812;SDS011;9030;50.792;8.320;2023-12-28T15:24:11;9.77;;;2.63;;
17812;SDS011;9030;50.792;8.320;2023-12-28T15:26:39;8.70;;;2.90;;
17812;SDS011;9030;50.792;8.320;2023-12-28T15:29:06;12.53;;;3.20;;
17812;SDS011;9030;50.792;8.320;2023-12-28T15:31:33;15.23;;;3.73;;
17812;SDS011;9030;50.792;8.320;2023-12-28T15:34:00;11.30;;;2.77;;
17812;SDS011;9030;50.792;8.320;2023-12-28T15:36:26;13.30;;;2.70;;
17812;SDS011;9030;50.792;8.320;2023-12-28T15:38:53;13.47;;;4.60;;
17812;SDS011;9030;50.792;8.320;2023-12-28T15:41:19;10.97;;;3.47;;
17812;SDS011;9030;50.792;8.320;2023-12-28T15:43:47;9.40;;;3.03;;
17812;SDS011;9030;50.792;8.320;2023-12-28T15:46:14;13.03;;;3.93;;
17812;SDS011;9030;50.792;8.320;2023-12-28T15:48:41;14.23;;;3.87;;
17812;SDS011;9030;50.792;8.320;2023-12-28T15:51:07;9.73;;;3.00;;
17812;SDS011;9030;50.792;8.320;2023-12-28T15:53:34;9.33;;;3.17;;
17812;SDS011;9030;50.792;8.320;2023-12-28T15:56:01;10.60;;;4.37;;
17812;SDS011;9030;50.792;8.320;2023-12-28T15:58:28;13.10;;;6.03;;
17812;SDS011;9030;50.792;8.320;2023-12-28T16:00:56;18.60;;;14.83;;
17812;SDS011;9030;50.792;8.320;2023-12-28T16:03:22;16.80;;;10.03;;
17812;SDS011;9030;50.792;8.320;2023-12-28T16:05:49;16.37;;;10.60;;
17812;SDS011;9030;50.792;8.320;2023-12-28T16:08:15;17.50;;;11.77;;
17812;SDS011;9030;50.792;8.320;2023-12-28T16:10:42;12.60;;;4.70;;
17812;SDS011;9030;50.792;8.320;2023-12-28T16:13:09;12.57;;;5.00;;
17812;SDS011;9030;50.792;8.320;2023-12-28T16:15:36;12.80;;;4.00;;
17812;SDS011;9030;50.792;8.320;2023-12-28T16:18:05;13.13;;;5.90;;
17812;SDS011;9030;50.792;8.320;2023-12-28T16:20:32;9.83;;;3.73;;
17812;SDS011;9030;50.792;8.320;2023-12-28T16:22:59;15.70;;;5.93;;
17812;SDS011;9030;50.792;8.320;2023-12-28T16:25:26;15.37;;;5.80;;
17812;SDS011;9030;50.792;8.320;2023-12-28T16:27:53;9.70;;;4.30;;
17812;SDS011;9030;50.792;8.320;2023-12-28T16:30:20;11.30;;;4.47;;
17812;SDS011;9030;50.792;8.320;2023-12-28T16:32:47;15.20;;;4.73;;
17812;SDS011;9030;50.792;8.320;2023-12-28T16:35:15;13.10;;;8.00;;
17812;SDS011;9030;50.792;8.320;2023-12-28T16:37:41;15.23;;;6.70;;
17812;SDS011;9030;50.792;8.320;2023-12-28T16:40:08;15.07;;;5.33;;
17812;SDS011;9030;50.792;8.320;2023-12-28T16:42:35;11.40;;;4.73;;
17812;SDS011;9030;50.792;8.320;2023-12-28T16:45:02;8.67;;;4.03;;
17812;SDS011;9030;50.792;8.320;2023-12-28T16:47:29;11.33;;;3.53;;
17812;SDS011;9030;50.792;8.320;2023-12-28T16:49:57;18.33;;;10.33;;
17812;SDS011;9030;50.792;8.320;2023-12-28T16:52:25;11.80;;;5.33;;
17812;SDS011;9030;50.792;8.320;2023-12-28T16:54:52;12.63;;;4.57;;
17812;SDS011;9030;50.792;8.320;2023-12-28T16:57:19;11.37;;;4.33;;
17812;SDS011;9030;50.792;8.320;2023-12-28T16:59:46;6.97;;;3.23;;
17812;SDS011;9030;50.792;8.320;2023-12-28T17:02:12;11.67;;;2.70;;
17812;SDS011;9030;50.792;8.320;2023-12-28T17:04:39;8.90;;;3.17;;
17812;SDS011;9030;50.792;8.320;2023-12-28T17:07:06;14.77;;;5.10;;
17812;SDS011;9030;50.792;8.320;2023-12-28T17:09:35;14.53;;;5.03;;
17812;SDS011;9030;50.792;8.320;2023-12-28T17:12:03;14.73;;;4.63;;
17812;SDS011;9030;50.792;8.320;2023-12-28T17:14:35;12.80;;;4.50;;
17812;SDS011;9030;50.792;8.320;2023-12-28T17:17:02;11.10;;;4.93;;
17812;SDS011;9030;50.792;8.320;2023-12-28T17:19:28;13.93;;;4.80;;
17812;SDS011;9030;50.792;8.320;2023-12-28T17:21:55;9.00;;;4.10;;
17812;SDS011;9030;50.792;8.320;2023-12-28T17:24:27;8.23;;;3.97;;
17812;SDS011;9030;50.792;8.320;2023-12-28T17:26:59;10.93;;;4.43;;
17812;SDS011;9030;50.792;8.320;2023-12-28T17:29:34;10.37;;;3.30;;
17812;SDS011;9030;50.792;8.320;2023-12-28T17:32:03;6.03;;;2.80;;
17812;SDS011;9030;50.792;8.320;2023-12-28T17:34:32;13.37;;;3.60;;
17812;SDS011;9030;50.792;8.320;2023-12-28T17:36:59;6.30;;;2.13;;
17812;SDS011;9030;50.792;8.320;2023-12-28T17:39:27;9.90;;;2.97;;
17812;SDS011;9030;50.792;8.320;2023-12-28T17:41:53;6.90;;;2.53;;
17812;SDS011;9030;50.792;8.320;2023-12-28T17:44:23;10.30;;;2.80;;
17812;SDS011;9030;50.792;8.320;2023-12-28T17:46:53;5.67;;;3.00;;
17812;SDS011;9030;50.792;8.320;2023-12-28T17:49:24;7.03;;;2.70;;
17812;SDS011;9030;50.792;8.320;2023-12-28T17:51:52;7.80;;;2.90;;
17812;SDS011;9030;50.792;8.320;2023-12-28T17:54:20;5.83;;;2.30;;
17812;SDS011;9030;50.792;8.320;2023-12-28T17:56:47;6.87;;;2.97;;
17812;SDS011;9030;50.792;8.320;2023-12-28T17:59:13;5.57;;;2.40;;
17812;SDS011;9030;50.792;8.320;2023-12-28T18:01:41;6.70;;;2.57;;
17812;SDS011;9030;50.792;8.320;2023-12-28T18:04:08;8.93;;;2.03;;